Time;durP1;ratioP1;P1;durP2;ratioP2;P2;SDS_P1;SDS_P2;PMS_P1;PMS_P2;Temp;Humidity;BMP_temperature;BMP_pressure;BME280_temperature;BME280_humidity;BME280_pressure;Samples;Min_cycle;Max_cycle;Signal;HPM_P1;HPM_P2
2021/06/01 00:01:23;;;;;;;4.10;3.70;;;;;;;17.43;39.76;96823.84;5034558;28;20428;-68
2021/06/01 00:03:49;;;;;;;7.27;3.93;;;;;;;17.42;39.39;96819.56;5048930;28;20422;-69
2021/06/01 00:06:15;;;;;;;5.40;4.10;;;;;;;17.40;39.37;96821.59;5049165;28;21196;-69
2021/06/01 00:08:41;;;;;;;5.27;3.70;;;;;;;17.43;39.57;96815.91;5052464;28;20452;-69
2021/06/01 00:11:08;;;;;;;3.90;3.40;;;;;;;17.41;39.69;96815.28;5052301;28;20232;-68
2021/06/01 00:13:34;;;;;;;6.60;3.77;;;;;;;17.40;40.56;96816.28;5052269;28;20433;-68
2021/06/01 00:16:00;;;;;;;4.93;3.93;;;;;;;17.39;40.20;96818.16;5051963;28;20825;-68
2021/06/01 00:18:26;;;;;;;5.23;4.73;;;;;;;17.40;40.04;96811.00;5048151;28;20982;-69
2021/06/01 00:20:51;;;;;;;4.30;3.90;;;;;;;17.20;40.43;96817.13;5047256;28;20522;-68
2021/06/01 00:23:17;;;;;;;13.97;4.30;;;;;;;16.94;40.80;96818.75;5050800;28;20183;-69
2021/06/01 00:25:43;;;;;;;4.27;3.87;;;;;;;16.87;41.06;96828.50;5048757;28;20225;-68
2021/06/01 00:28:08;;;;;;;6.67;4.33;;;;;;;16.84;41.37;96818.31;5052193;28;20199;-69
2021/06/01 00:30:34;;;;;;;7.20;3.53;;;;;;;16.85;41.65;96814.66;5052851;28;20171;-68
2021/06/01 00:32:59;;;;;;;7.63;4.30;;;;;;;16.80;41.30;96811.78;5054587;28;20239;-68
2021/06/01 00:35:25;;;;;;;7.90;4.00;;;;;;;16.70;41.71;96813.00;5059691;28;20259;-69
2021/06/01 00:37:51;;;;;;;3.90;3.60;;;;;;;16.62;41.84;96813.19;5043148;28;20205;-68
2021/06/01 00:40:17;;;;;;;5.77;3.80;;;;;;;16.55;41.98;96810.53;5064366;28;20306;-68
2021/06/01 00:42:42;;;;;;;4.87;4.33;;;;;;;16.49;42.05;96802.59;5056508;28;20603;-68
2021/06/01 00:45:09;;;;;;;6.80;3.70;;;;;;;16.42;42.44;96806.00;5044048;28;20333;-68
2021/06/01 00:47:35;;;;;;;4.33;3.63;;;;;;;16.32;42.78;96805.56;5051810;28;20236;-68
2021/06/01 00:50:00;;;;;;;3.90;3.50;;;;;;;16.36;42.92;96808.63;5055004;28;20528;-70
2021/06/01 00:52:26;;;;;;;4.00;3.60;;;;;;;16.39;42.55;96802.94;5063138;28;20178;-70
2021/06/01 00:54:52;;;;;;;5.93;3.83;;;;;;;16.39;42.49;96797.66;5061266;28;20568;-69
2021/06/01 00:57:17;;;;;;;4.60;3.73;;;;;;;16.32;42.14;96802.94;5056635;28;20206;-68
2021/06/01 00:59:43;;;;;;;3.73;3.43;;;;;;;16.17;43.35;96807.53;5052673;28;20175;-68
2021/06/01 01:02:09;;;;;;;4.47;4.00;;;;;;;15.99;43.74;96803.63;5051885;28;20175;-69
2021/06/01 01:04:35;;;;;;;4.80;3.93;;;;;;;16.12;43.77;96806.34;5052239;28;20265;-69
2021/06/01 01:07:20;;;;;;;3.90;3.37;;;;;;;15.97;42.80;96798.53;5052137;28;20290;-69
2021/06/01 01:09:46;;;;;;;6.53;3.63;;;;;;;15.96;43.19;96801.38;5050445;28;20414;-68
2021/06/01 01:12:25;;;;;;;3.77;3.47;;;;;;;16.03;42.86;96810.13;5055249;28;20425;-69
2021/06/01 01:14:54;;;;;;;5.53;3.40;;;;;;;16.01;43.63;96806.06;5051054;28;20417;-68
2021/06/01 01:17:24;;;;;;;6.10;3.27;;;;;;;16.04;42.82;96806.47;5050261;28;20480;-69
2021/06/01 01:20:06;;;;;;;3.60;3.30;;;;;;;16.02;42.75;96803.22;5042807;28;20415;-69
2021/06/01 01:22:34;;;;;;;3.83;3.30;;;;;;;15.93;43.24;96804.41;5041800;28;20417;-68
2021/06/01 01:25:30;;;;;;;4.50;4.00;;;;;;;16.01;42.89;96809.50;5045964;28;20430;-68
2021/06/01 01:28:03;;;;;;;3.80;3.50;;;;;;;15.81;43.02;96802.28;5051459;28;20473;-68
2021/06/01 01:30:32;;;;;;;5.00;3.80;;;;;;;15.81;42.96;96804.13;5035548;28;20844;-68
2021/06/01 01:33:01;;;;;;;4.43;3.67;;;;;;;15.77;43.21;96801.03;5049708;28;20791;-68
2021/06/01 01:35:30;;;;;;;4.27;3.97;;;;;;;15.67;43.07;96800.56;5050817;28;20493;-69
2021/06/01 01:37:59;;;;;;;8.03;4.03;;;;;;;15.66;43.39;96796.31;5050541;28;20441;-67
2021/06/01 01:40:31;;;;;;;4.10;3.80;;;;;;;15.73;43.33;96799.81;5044132;28;20960;-67
2021/06/01 01:43:03;;;;;;;5.53;3.93;;;;;;;15.82;42.86;96795.16;5059173;28;20443;-69
2021/06/01 01:45:34;;;;;;;4.27;3.87;;;;;;;15.78;42.88;96805.31;5047135;28;20489;-68
2021/06/01 01:50:58;;;;;;;6.30;3.90;;;;;;;15.68;43.32;96798.78;5039053;28;20437;-68
2021/06/01 01:53:24;;;;;;;8.00;4.53;;;;;;;15.76;43.37;96793.31;5054792;28;20425;-68
2021/06/01 01:55:51;;;;;;;4.70;4.20;;;;;;;15.82;42.91;96801.28;5045442;28;20429;-68
2021/06/01 01:58:18;;;;;;;4.43;3.67;;;;;;;15.87;43.00;96792.78;5053280;28;20437;-69
2021/06/01 02:00:45;;;;;;;4.20;3.90;;;;;;;15.84;42.99;96805.56;5054769;28;20832;-68
2021/06/01 02:03:10;;;;;;;4.50;3.67;;;;;;;15.89;42.82;96795.22;5054956;28;20468;-68
2021/06/01 02:05:40;;;;;;;4.30;3.90;;;;;;;15.92;42.88;96797.47;5052664;28;20526;-68
2021/06/01 02:08:09;;;;;;;9.00;3.60;;;;;;;15.82;42.85;96792.53;5054886;28;20690;-68
2021/06/01 02:10:35;;;;;;;4.40;4.00;;;;;;;15.79;43.32;96793.72;5052025;28;20430;-68
2021/06/01 02:13:00;;;;;;;4.57;4.17;;;;;;;15.68;43.20;96796.94;5051842;28;20426;-68
2021/06/01 02:15:26;;;;;;;4.53;4.13;;;;;;;15.70;43.40;96799.38;5052747;28;20669;-68
2021/06/01 02:17:52;;;;;;;4.07;3.73;;;;;;;15.74;42.84;96797.97;5054136;28;20210;-68
2021/06/01 02:20:17;;;;;;;4.40;4.00;;;;;;;15.78;43.17;96800.03;5050820;28;20269;-67
2021/06/01 02:25:22;;;;;;;7.93;3.70;;;;;;;15.79;42.67;96799.03;5050185;28;20183;-68
2021/06/01 02:28:18;;;;;;;6.30;4.03;;;;;;;15.71;43.61;96801.00;5053833;28;20472;-68
2021/06/01 02:31:04;;;;;;;4.50;3.90;;;;;;;15.73;43.30;96791.88;5042951;28;20425;-68
2021/06/01 02:33:32;;;;;;;5.10;4.20;;;;;;;15.53;43.13;96797.06;5046693;28;20434;-68
2021/06/01 02:36:00;;;;;;;4.10;3.70;;;;;;;15.50;43.92;96797.44;5053786;28;20791;-68
2021/06/01 02:38:27;;;;;;;4.10;3.80;;;;;;;15.38;43.45;96799.78;5052391;28;20548;-68
2021/06/01 02:40:53;;;;;;;4.70;4.10;;;;;;;15.27;44.54;96795.03;5052305;28;20919;-68
2021/06/01 02:43:19;;;;;;;4.97;3.80;;;;;;;15.41;44.07;96796.75;5052490;28;20760;-68
2021/06/01 02:45:45;;;;;;;4.30;3.90;;;;;;;15.44;43.02;96792.91;5052784;28;20495;-68
2021/06/01 02:48:12;;;;;;;4.10;3.67;;;;;;;15.33;44.01;96795.09;5053734;28;20461;-69
2021/06/01 02:50:39;;;;;;;5.00;4.50;;;;;;;15.27;44.29;96787.94;5052455;28;20179;-68
2021/06/01 02:53:06;;;;;;;4.60;4.17;;;;;;;15.22;44.33;96787.69;5055398;28;20433;-68
2021/06/01 02:55:31;;;;;;;4.60;4.20;;;;;;;15.14;43.95;96783.38;5051303;28;20431;-68
2021/06/01 02:57:58;;;;;;;5.10;4.70;;;;;;;15.10;43.95;96787.41;5051478;28;20437;-68
2021/06/01 03:00:25;;;;;;;5.43;4.53;;;;;;;15.04;44.49;96786.38;5049596;28;20552;-68
2021/06/01 03:02:52;;;;;;;8.33;3.90;;;;;;;14.90;44.32;96788.06;5050843;28;20483;-68
2021/06/01 03:05:19;;;;;;;6.63;4.27;;;;;;;14.77;44.92;96787.94;5023583;28;20442;-68
2021/06/01 03:07:56;;;;;;;8.27;4.20;;;;;;;14.69;45.37;96788.88;5042042;28;20883;-68
2021/06/01 03:10:24;;;;;;;6.80;4.40;;;;;;;14.81;45.40;96783.94;5055019;28;20860;-70
2021/06/01 03:13:01;;;;;;;8.70;4.40;;;;;;;14.90;45.06;96781.97;5047399;28;20793;-68
2021/06/01 03:15:27;;;;;;;5.27;4.10;;;;;;;14.94;44.64;96779.78;5028926;28;20479;-68
2021/06/01 03:17:53;;;;;;;4.33;3.93;;;;;;;14.96;44.56;96780.41;5049379;28;20528;-68
2021/06/01 03:20:19;;;;;;;4.00;3.60;;;;;;;15.05;44.78;96776.59;5033983;28;20495;-68
2021/06/01 03:22:46;;;;;;;13.80;4.20;;;;;;;15.13;44.35;96779.09;5033391;28;20522;-68
2021/06/01 03:25:12;;;;;;;12.43;4.40;;;;;;;15.17;44.15;96776.91;5032870;28;20431;-68
2021/06/01 03:27:37;;;;;;;5.93;4.17;;;;;;;15.19;44.58;96775.72;5033072;28;20473;-68
2021/06/01 03:30:08;;;;;;;9.90;4.03;;;;;;;15.23;44.21;96783.25;5032875;28;20262;-68
2021/06/01 03:32:34;;;;;;;4.40;3.97;;;;;;;15.22;44.14;96784.25;5046981;28;20190;-68
2021/06/01 03:34:59;;;;;;;5.30;4.00;;;;;;;15.14;44.80;96777.28;5036093;28;20426;-68
2021/06/01 03:37:25;;;;;;;7.10;4.37;;;;;;;14.98;44.91;96775.75;5036938;28;20199;-67
2021/06/01 03:39:50;;;;;;;5.80;5.20;;;;;;;14.54;45.76;96781.00;5037076;28;20550;-68
2021/06/01 03:42:17;;;;;;;4.93;4.13;;;;;;;14.43;45.97;96787.56;5032835;28;20600;-67
2021/06/01 03:44:43;;;;;;;4.60;4.13;;;;;;;14.56;45.98;96778.16;5033212;28;20191;-67
2021/06/01 03:47:09;;;;;;;4.67;4.27;;;;;;;14.44;46.41;96785.78;5022941;28;20845;-68
2021/06/01 03:49:35;;;;;;;5.57;4.17;;;;;;;14.43;46.79;96786.78;5032596;28;20227;-67
2021/06/01 03:52:00;;;;;;;5.00;4.40;;;;;;;14.48;46.21;96792.31;5040834;28;20969;-68
2021/06/01 03:54:27;;;;;;;9.53;5.97;;;;;;;14.56;45.87;96786.09;5040407;28;20427;-68
2021/06/01 03:56:52;;;;;;;6.20;4.80;;;;;;;14.64;45.73;96793.06;5037340;28;20211;-68
2021/06/01 03:59:18;;;;;;;5.23;4.73;;;;;;;14.63;45.54;96781.72;5040064;28;20466;-68
2021/06/01 04:01:43;;;;;;;8.70;4.33;;;;;;;14.62;45.37;96781.91;5031922;28;20190;-67
2021/06/01 04:04:09;;;;;;;9.63;3.90;;;;;;;14.71;45.68;96788.72;5038302;28;20191;-69
2021/06/01 04:06:35;;;;;;;8.50;4.77;;;;;;;14.79;45.41;96790.41;5031164;28;20199;-68
2021/06/01 04:09:00;;;;;;;5.03;4.53;;;;;;;14.87;45.46;96793.72;5031530;28;20207;-69
2021/06/01 04:11:26;;;;;;;8.93;4.30;;;;;;;14.92;45.31;96779.97;5032480;28;20202;-68
2021/06/01 04:13:52;;;;;;;4.60;4.20;;;;;;;14.96;44.86;96790.94;5035218;28;20266;-68
2021/06/01 04:16:17;;;;;;;6.43;4.33;;;;;;;15.05;44.47;96785.34;5032016;28;20687;-67
2021/06/01 04:18:43;;;;;;;4.90;4.40;;;;;;;15.10;44.39;96791.88;5031979;28;20580;-68
2021/06/01 04:21:09;;;;;;;6.73;4.60;;;;;;;14.99;43.97;96798.50;5031850;28;20175;-68
2021/06/01 04:23:34;;;;;;;5.53;4.43;;;;;;;15.10;44.49;96786.59;5031248;28;20188;-68
2021/06/01 04:26:00;;;;;;;4.53;4.13;;;;;;;15.34;44.50;96793.28;5032147;28;20190;-68
2021/06/01 04:28:25;;;;;;;7.80;4.87;;;;;;;15.51;43.57;96781.38;5034118;28;20201;-68
2021/06/01 04:30:51;;;;;;;4.50;4.10;;;;;;;15.70;43.43;96781.72;5032068;28;20268;-68
2021/06/01 04:33:17;;;;;;;4.37;3.97;;;;;;;15.81;42.77;96786.44;5031518;28;20187;-68
2021/06/01 04:35:42;;;;;;;5.30;4.70;;;;;;;15.90;42.79;96787.13;5031332;28;20663;-68
2021/06/01 04:38:08;;;;;;;5.53;4.03;;;;;;;16.00;43.00;96792.06;5039900;28;20666;-68
2021/06/01 04:40:34;;;;;;;9.97;4.57;;;;;;;16.14;42.31;96790.25;5031851;28;20200;-68
2021/06/01 04:43:00;;;;;;;4.47;4.07;;;;;;;16.32;42.47;96789.72;5031963;28;20186;-69
2021/06/01 04:45:26;;;;;;;5.70;3.93;;;;;;;16.33;41.70;96786.06;5034175;28;20202;-68
2021/06/01 04:47:52;;;;;;;6.50;4.07;;;;;;;16.29;41.53;96790.09;5032496;28;21004;-68
2021/06/01 04:50:18;;;;;;;4.70;4.10;;;;;;;16.25;41.49;96788.88;5033732;28;20192;-68
2021/06/01 04:52:43;;;;;;;4.70;4.20;;;;;;;16.47;41.58;96786.91;5033321;28;20630;-68
2021/06/01 04:55:10;;;;;;;4.60;4.13;;;;;;;16.48;41.06;96790.38;5050545;28;20545;-68
2021/06/01 04:57:37;;;;;;;8.80;3.83;;;;;;;16.78;42.89;96787.34;5049501;28;20195;-68
2021/06/01 05:00:05;;;;;;;6.23;4.10;;;;;;;16.84;39.89;96778.63;5042057;28;20426;-68
2021/06/01 05:02:31;;;;;;;11.00;4.67;;;;;;;16.81;41.01;96781.66;5047715;28;20426;-68
2021/06/01 05:04:56;;;;;;;4.17;3.30;;;;;;;16.97;41.07;96781.31;5039848;28;20825;-68
2021/06/01 05:07:22;;;;;;;5.83;4.30;;;;;;;16.87;39.56;96783.50;5040683;28;20204;-68
2021/06/01 05:09:48;;;;;;;5.73;4.17;;;;;;;16.64;40.45;96775.94;5040045;28;20214;-68
2021/06/01 05:12:14;;;;;;;8.40;4.17;;;;;;;16.87;40.79;96775.56;5043898;28;20180;-71
2021/06/01 05:14:39;;;;;;;8.03;3.80;;;;;;;17.12;40.28;96773.16;5033170;28;20445;-71
2021/06/01 05:17:05;;;;;;;5.27;4.27;;;;;;;17.24;38.60;96778.66;5031945;28;20223;-68
2021/06/01 05:19:30;;;;;;;5.80;3.97;;;;;;;17.15;38.92;96762.16;5031787;28;20262;-69
2021/06/01 05:21:56;;;;;;;5.20;3.90;;;;;;;17.07;39.47;96772.97;5034741;28;20187;-69
2021/06/01 05:24:22;;;;;;;7.93;4.43;;;;;;;16.98;39.60;96772.34;5056469;28;20186;-68
2021/06/01 05:26:47;;;;;;;6.03;4.10;;;;;;;17.18;38.97;96768.88;5049752;28;20207;-68
2021/06/01 05:29:13;;;;;;;5.30;4.07;;;;;;;17.29;40.85;96775.38;5054867;28;20202;-68
2021/06/01 05:34:08;;;;;;;9.30;4.60;;;;;;;17.52;39.01;96766.16;5056598;28;20187;-69
2021/06/01 05:36:34;;;;;;;95.00;60.73;;;;;;;17.59;38.87;96775.72;5054876;28;20421;-68
2021/06/01 05:38:59;;;;;;;40.47;26.10;;;;;;;17.86;38.48;96764.22;5056014;28;20441;-68
2021/06/01 05:41:25;;;;;;;62.70;42.90;;;;;;;17.87;39.17;96764.03;5054354;28;20197;-68
2021/06/01 05:43:51;;;;;;;24.17;15.00;;;;;;;17.58;39.31;96768.00;5055616;28;20179;-67
2021/06/01 05:46:16;;;;;;;9.37;7.27;;;;;;;17.95;38.99;96765.66;5042508;28;20266;-67
2021/06/01 05:48:42;;;;;;;13.55;8.00;;;;;;;17.89;38.53;96761.16;5037636;28;20435;-68
2021/06/01 05:51:08;;;;;;;7.00;4.17;;;;;;;17.91;37.73;96765.22;5043872;28;20183;-68
2021/06/01 05:53:34;;;;;;;5.43;4.37;;;;;;;17.90;37.42;96768.91;5054505;28;20459;-67
2021/06/01 05:55:59;;;;;;;8.07;4.37;;;;;;;17.64;38.01;96761.84;5046047;28;20179;-68
2021/06/01 05:58:25;;;;;;;4.57;3.73;;;;;;;17.94;37.61;96767.47;5056143;28;20283;-67
2021/06/01 06:00:52;;;;;;;5.17;4.67;;;;;;;18.24;37.31;96769.63;5038199;28;20175;-67
2021/06/01 06:03:18;;;;;;;6.03;3.70;;;;;;;18.32;36.67;96770.38;5047712;28;20443;-69
2021/06/01 06:05:44;;;;;;;7.07;4.43;;;;;;;17.94;37.19;96780.72;5047448;28;20432;-66
2021/06/01 06:08:12;;;;;;;5.03;4.20;;;;;;;17.86;37.58;96775.66;5054584;28;20465;-70
2021/06/01 06:10:38;;;;;;;8.37;4.07;;;;;;;18.33;36.95;96766.72;5055862;28;20424;-69
2021/06/01 06:13:04;;;;;;;4.53;3.30;;;;;;;18.48;36.83;96766.41;5055266;28;20430;-69
2021/06/01 06:15:30;;;;;;;8.60;4.17;;;;;;;18.80;36.14;96761.91;5054997;28;20425;-69
2021/06/01 06:18:11;;;;;;;4.07;3.70;;;;;;;19.00;36.00;96767.09;5054958;28;20452;-67
2021/06/01 06:20:36;;;;;;;4.23;3.83;;;;;;;18.80;36.20;96771.72;5037806;28;20240;-66
2021/06/01 06:23:02;;;;;;;5.87;3.87;;;;;;;19.14;35.52;96767.81;5049604;28;20425;-65
2021/06/01 06:25:28;;;;;;;3.80;3.50;;;;;;;19.16;35.21;96764.94;5043342;28;20655;-67
2021/06/01 06:27:54;;;;;;;3.63;3.33;;;;;;;19.13;35.43;96766.19;5035414;28;20208;-67
2021/06/01 06:30:21;;;;;;;3.67;3.30;;;;;;;19.68;34.58;96763.81;5037247;28;20380;-67
2021/06/01 06:32:47;;;;;;;5.73;4.17;;;;;;;19.78;34.25;96767.56;5035322;28;20418;-67
2021/06/01 06:35:12;;;;;;;3.97;3.30;;;;;;;19.63;34.16;96765.28;5045364;28;20937;-66
2021/06/01 06:37:38;;;;;;;6.23;3.70;;;;;;;19.86;33.82;96769.16;5043543;28;20219;-65
2021/06/01 06:40:05;;;;;;;4.80;3.80;;;;;;;19.86;33.64;96768.31;5037948;28;20329;-68
2021/06/01 06:42:33;;;;;;;4.57;3.67;;;;;;;20.09;33.57;96771.13;5042321;28;20417;-68
2021/06/01 06:44:59;;;;;;;3.90;3.47;;;;;;;20.18;33.24;96765.50;5054391;28;20479;-67
2021/06/01 06:47:29;;;;;;;4.30;3.40;;;;;;;20.15;32.87;96765.97;5052656;28;20986;-67
2021/06/01 06:49:55;;;;;;;3.50;3.00;;;;;;;20.01;32.76;96760.81;5046314;28;20433;-68
2021/06/01 06:52:22;;;;;;;4.53;3.23;;;;;;;19.42;33.96;96761.19;5052831;28;20888;-70
2021/06/01 06:54:47;;;;;;;5.93;3.40;;;;;;;19.72;33.75;96757.03;5053651;28;20454;-69
2021/06/01 06:57:13;;;;;;;7.33;2.73;;;;;;;19.84;33.48;96754.44;5053574;28;20844;-68
2021/06/01 06:59:39;;;;;;;3.80;3.13;;;;;;;20.02;33.17;96759.78;5054570;28;20239;-69
2021/06/01 07:02:05;;;;;;;4.00;3.60;;;;;;;20.08;33.11;96756.19;5055960;28;20748;-69
2021/06/01 07:04:31;;;;;;;7.83;3.13;;;;;;;20.49;32.75;96756.47;5054100;28;20253;-70
2021/06/01 07:06:58;;;;;;;3.63;3.33;;;;;;;20.61;32.20;96761.84;5053850;28;20536;-68
2021/06/01 07:09:24;;;;;;;4.27;3.07;;;;;;;20.94;31.94;96757.88;5045840;28;20425;-69
2021/06/01 07:11:50;;;;;;;4.60;3.10;;;;;;;20.53;32.25;96756.84;5053640;28;20456;-69
2021/06/01 07:14:16;;;;;;;3.13;2.83;;;;;;;20.58;32.49;96759.63;5044941;28;20577;-68
2021/06/01 07:16:41;;;;;;;3.50;3.20;;;;;;;20.46;32.52;96754.28;5047612;28;20285;-69
2021/06/01 07:19:07;;;;;;;7.37;3.20;;;;;;;20.89;31.95;96754.28;5048365;28;20202;-68
2021/06/01 07:21:33;;;;;;;6.80;2.90;;;;;;;20.37;32.08;96753.78;5045759;28;20186;-70
2021/06/01 07:23:58;;;;;;;5.70;3.00;;;;;;;20.80;31.53;96756.47;5050917;28;20179;-69
2021/06/01 07:26:24;;;;;;;3.60;2.90;;;;;;;21.00;31.60;96756.13;5052309;28;20214;-70
2021/06/01 07:28:50;;;;;;;4.30;2.97;;;;;;;20.85;31.34;96748.59;5052288;28;20222;-70
2021/06/01 07:31:17;;;;;;;4.53;2.97;;;;;;;20.82;31.71;96749.06;5050986;28;20445;-70
2021/06/01 07:33:43;;;;;;;6.47;2.90;;;;;;;21.00;31.50;96748.97;5052064;28;20186;-69
2021/06/01 07:36:09;;;;;;;3.70;2.60;;;;;;;20.76;30.56;96739.34;5052974;28;20421;-70
2021/06/01 07:38:35;;;;;;;7.70;3.00;;;;;;;20.83;31.31;96740.03;5050393;28;20449;-70
2021/06/01 07:41:04;;;;;;;4.73;2.87;;;;;;;20.87;31.42;96738.53;5052795;28;20202;-70
2021/06/01 07:43:30;;;;;;;4.03;3.00;;;;;;;20.56;31.99;96733.25;5046636;28;20434;-69
2021/06/01 07:45:56;;;;;;;4.77;3.93;;;;;;;20.90;31.24;96735.44;5031438;28;20512;-69
2021/06/01 07:48:22;;;;;;;3.87;3.10;;;;;;;21.12;30.73;96735.66;5043000;28;20461;-68
2021/06/01 07:50:48;;;;;;;3.80;2.93;;;;;;;21.02;30.44;96728.25;5052735;28;20425;-69
2021/06/01 07:53:14;;;;;;;8.57;2.60;;;;;;;20.85;31.00;96735.28;5051817;28;20978;-70
2021/06/01 07:55:40;;;;;;;5.67;3.43;;;;;;;20.67;30.89;96739.63;5052904;28;20421;-69
2021/06/01 07:58:06;;;;;;;6.00;2.90;;;;;;;20.99;31.07;96735.88;5052271;28;20202;-70
2021/06/01 08:00:31;;;;;;;8.93;3.30;;;;;;;21.28;30.34;96728.84;5046370;28;20262;-70
2021/06/01 08:02:57;;;;;;;2.90;2.70;;;;;;;21.11;30.36;96727.91;5057335;28;20525;-68
2021/06/01 08:05:23;;;;;;;5.57;3.17;;;;;;;21.23;30.22;96727.91;5041542;28;20228;-69
2021/06/01 08:07:50;;;;;;;4.00;3.07;;;;;;;21.51;30.19;96729.03;5052949;28;20211;-69
2021/06/01 08:10:17;;;;;;;10.07;3.13;;;;;;;21.34;30.24;96727.09;5052517;28;20850;-69
2021/06/01 08:12:44;;;;;;;3.97;2.63;;;;;;;21.22;30.07;96720.97;5052877;28;20770;-69
2021/06/01 08:15:10;;;;;;;7.80;3.23;;;;;;;21.31;29.88;96730.22;5052336;28;20429;-70
2021/06/01 08:17:36;;;;;;;7.70;2.93;;;;;;;21.75;29.22;96724.50;5052049;28;20538;-70
2021/06/01 08:20:56;;;;;;;2.70;2.47;;;;;;;22.13;29.11;96716.94;5044375;28;20418;-68
2021/06/01 08:22:52;;;;;;;4.50;3.00;;;;;;;22.38;28.80;96720.06;5036836;28;20192;-69
2021/06/01 08:25:18;;;;;;;4.27;2.83;;;;;;;22.69;28.69;96714.47;5057240;28;20428;-69
2021/06/01 08:27:43;;;;;;;4.20;3.10;;;;;;;22.25;29.42;96707.84;5056105;28;20536;-69
2021/06/01 08:30:09;;;;;;;3.83;3.10;;;;;;;22.71;28.68;96712.38;5056280;28;20209;-68
2021/06/01 08:32:35;;;;;;;6.27;3.00;;;;;;;22.66;28.76;96706.97;5053279;28;20175;-69
2021/06/01 08:35:02;;;;;;;13.47;3.50;;;;;;;22.39;29.40;96710.22;5044703;28;20538;-69
2021/06/01 08:37:28;;;;;;;5.20;3.17;;;;;;;22.86;28.87;96712.63;5052726;28;20525;-69
2021/06/01 08:39:53;;;;;;;3.33;3.00;;;;;;;23.05;28.15;96703.53;5050954;28;20772;-71
2021/06/01 08:42:19;;;;;;;5.30;2.67;;;;;;;22.77;28.84;96706.09;5052851;28;20185;-70
2021/06/01 08:44:48;;;;;;;6.87;2.57;;;;;;;22.59;27.54;96708.97;5053165;28;20185;-71
2021/06/01 08:47:17;;;;;;;3.30;2.00;;;;;;;22.98;26.01;96709.06;5048704;28;20211;-69
2021/06/01 08:49:43;;;;;;;3.30;2.40;;;;;;;23.10;25.49;96711.66;5052101;28;20418;-72
2021/06/01 08:52:09;;;;;;;2.93;2.20;;;;;;;;;;5031118;28;20425;-70
2021/06/01 08:54:34;;;;;;;2.43;2.23;;;;;;;22.73;25.64;96706.81;5045814;28;20413;-70
2021/06/01 08:57:00;;;;;;;8.07;2.10;;;;;;;23.13;24.59;96711.97;5051096;28;20261;-70
2021/06/01 08:59:25;;;;;;;4.70;2.37;;;;;;;22.97;25.11;96723.47;5053407;28;20175;-69
2021/06/01 09:01:51;;;;;;;4.10;2.80;;;;;;;23.09;25.24;96710.81;5054547;28;20265;-71
2021/06/01 09:04:17;;;;;;;2.90;2.33;;;;;;;23.55;24.67;96712.56;5045792;28;20195;-71
2021/06/01 09:06:49;;;;;;;2.60;2.40;;;;;;;24.03;24.48;96707.50;5063030;28;20199;-71
2021/06/01 09:22:39;;;;;;;5.50;2.43;;;;;;;23.50;24.41;96699.94;5047620;28;20451;-71
2021/06/01 09:25:23;;;;;;;2.50;2.30;;;;;;;23.73;24.66;96682.81;5056556;28;20943;-70
2021/06/01 09:27:54;;;;;;;4.70;3.00;;;;;;;24.37;23.73;96692.06;5056085;28;20454;-69
2021/06/01 09:30:45;;;;;;;5.37;2.63;;;;;;;23.52;24.20;96697.00;5056293;28;20474;-70
2021/06/01 09:33:17;;;;;;;5.60;2.30;;;;;;;23.43;24.15;96689.41;5054772;28;20441;-68
2021/06/01 09:35:45;;;;;;;11.10;2.30;;;;;;;23.45;24.11;96678.47;5052315;28;20502;-70
2021/06/01 09:38:12;;;;;;;3.87;2.37;;;;;;;24.02;23.76;96682.63;5045339;28;20445;-72
2021/06/01 09:40:39;;;;;;;2.53;2.33;;;;;;;24.17;23.50;96675.81;5049462;28;20437;-69
2021/06/01 09:43:16;;;;;;;4.67;2.10;;;;;;;24.18;24.13;96674.78;5051449;28;20421;-69
2021/06/01 09:45:43;;;;;;;2.40;1.93;;;;;;;24.18;23.96;96678.25;5052320;28;20812;-68
2021/06/01 09:48:10;;;;;;;2.67;2.07;;;;;;;24.30;24.20;96670.06;5044950;28;20472;-69
2021/06/01 09:50:43;;;;;;;6.37;2.43;;;;;;;24.01;24.16;96677.53;5029579;28;20421;-70
2021/06/01 09:53:27;;;;;;;4.27;2.50;;;;;;;24.42;24.00;96679.81;5035633;28;20986;-70
2021/06/01 09:55:54;;;;;;;2.17;2.00;;;;;;;24.61;23.74;96670.31;5055984;28;20487;-69
2021/06/01 09:58:26;;;;;;;2.50;2.30;;;;;;;24.43;23.91;96679.53;5055799;28;20476;-68
2021/06/01 10:00:52;;;;;;;3.07;2.77;;;;;;;24.77;23.35;96670.47;5045616;28;20433;-71
2021/06/01 10:03:20;;;;;;;7.33;2.83;;;;;;;24.75;23.27;96672.59;5050939;28;20881;-70
2021/06/01 10:05:54;;;;;;;3.30;2.40;;;;;;;24.63;22.64;96664.72;5052474;28;20421;-70
2021/06/01 10:08:23;;;;;;;4.13;2.40;;;;;;;24.26;23.20;96658.25;5048445;28;20468;-68
2021/06/01 10:11:03;;;;;;;2.30;2.10;;;;;;;24.66;22.74;96662.34;5054135;28;20481;-69
2021/06/01 10:13:35;;;;;;;5.57;2.40;;;;;;;24.56;22.87;96662.25;5053072;28;20421;-69
2021/06/01 10:16:16;;;;;;;2.93;2.73;;;;;;;24.50;22.79;96652.56;5045797;28;20426;-69
2021/06/01 10:18:44;;;;;;;2.23;2.00;;;;;;;24.74;22.63;96666.44;5049911;28;21062;-68
2021/06/01 10:21:17;;;;;;;4.17;2.50;;;;;;;25.29;22.14;96648.28;5052727;28;20472;-69
2021/06/01 10:23:44;;;;;;;3.73;2.30;;;;;;;25.32;21.97;96646.94;5056124;28;20459;-70
2021/06/01 10:26:14;;;;;;;3.40;2.60;;;;;;;25.40;21.99;96648.31;5053189;28;20428;-73
2021/06/01 10:28:43;;;;;;;6.70;2.47;;;;;;;25.44;22.37;96649.44;5056717;28;21050;-68
2021/06/01 10:31:12;;;;;;;4.20;2.20;;;;;;;25.37;22.20;96649.66;5061061;28;20429;-68
2021/06/01 10:33:40;;;;;;;4.03;2.27;;;;;;;24.84;22.00;96647.75;5059528;28;21013;-70
2021/06/01 10:44:51;;;;;;;2.57;2.37;;;;;;;26.09;21.61;96632.97;5042701;28;20437;-70
2021/06/01 10:50:22;;;;;;;3.13;2.80;;;;;;;26.37;21.67;96625.50;5038877;28;20430;-69
2021/06/01 10:53:03;;;;;;;2.70;2.30;;;;;;;26.30;20.96;96631.16;5060855;28;20502;-69
2021/06/01 10:55:49;;;;;;;2.20;2.10;;;;;;;26.33;20.66;96635.97;5038229;28;20417;-69
2021/06/01 10:58:22;;;;;;;5.13;2.10;;;;;;;26.10;21.26;96623.06;5061504;28;21042;-68
2021/06/01 11:03:18;;;;;;;4.03;2.70;;;;;;;25.42;22.07;96620.19;5060712;28;20421;-71
2021/06/01 11:05:56;;;;;;;4.40;2.27;;;;;;;26.05;21.64;96618.50;5059225;28;20306;-70
2021/06/01 11:08:48;;;;;;;8.20;2.37;;;;;;;25.55;20.95;96615.41;5058814;28;20469;-68
2021/06/01 11:11:33;;;;;;;2.60;2.10;;;;;;;25.69;20.50;96618.41;5047238;28;20454;-69
2021/06/01 11:14:00;;;;;;;2.30;2.10;;;;;;;26.07;20.20;96619.81;5051268;28;20951;-69
2021/06/01 11:16:53;;;;;;;3.00;2.03;;;;;;;25.97;20.29;96619.81;5051499;28;20421;-70
2021/06/01 11:19:20;;;;;;;3.00;2.37;;;;;;;26.86;19.75;96609.91;5052764;28;20429;-71
2021/06/01 11:21:58;;;;;;;2.47;2.10;;;;;;;25.54;21.38;96606.56;5051845;28;20496;-70
2021/06/01 11:35:28;;;;;;;2.50;2.30;;;;;;;26.51;21.53;96610.47;5049688;28;20853;-71
2021/06/01 11:43:12;;;;;;;3.13;2.60;;;;;;;26.89;21.47;96598.63;5053282;28;20789;-70
2021/06/01 11:45:41;;;;;;;3.20;2.33;;;;;;;27.32;21.30;96592.81;5054415;28;20418;-72
2021/06/01 11:48:29;;;;;;;2.20;2.00;;;;;;;27.26;20.64;96594.72;5053337;28;20555;-69
2021/06/01 11:51:13;;;;;;;5.73;2.30;;;;;;;27.44;18.98;96586.09;5042226;28;20850;-70
2021/06/01 11:53:55;;;;;;;1.90;1.80;;;;;;;27.47;19.09;96583.94;5036479;28;20429;-70
2021/06/01 12:18:50;;;;;;;2.67;2.47;;;;;;;28.54;19.42;96570.78;5062236;28;20450;-67
2021/06/01 12:21:29;;;;;;;9.37;2.70;;;;;;;29.04;18.56;96561.66;5058671;28;20450;-68
2021/06/01 12:24:12;;;;;;;4.00;2.37;;;;;;;28.81;19.60;96569.47;5059661;28;20516;-69
2021/06/01 12:32:12;;;;;;;8.50;2.27;;;;;;;28.78;19.62;96564.66;5061186;28;20428;-68
2021/06/01 12:45:53;;;;;;;26.67;4.10;;;;;;;29.62;19.37;96551.78;5049539;28;20429;-69
2021/06/01 13:15:01;;;;;;;7.90;2.40;;;;;;;30.30;18.63;96519.97;5041727;28;20409;-69
2021/06/01 13:40:21;;;;;;;6.50;2.37;;;;;;;30.68;18.50;96487.41;5046566;28;20881;-70
2021/06/01 13:56:10;;;;;;;6.00;2.90;;;;;;;30.83;17.46;96486.28;5055625;28;20187;-68
2021/06/01 13:58:51;;;;;;;3.00;2.50;;;;;;;30.83;17.42;96489.00;5055287;28;20437;-68
2021/06/01 14:09:51;;;;;;;2.40;2.20;;;;;;;30.92;17.70;96483.69;5054705;28;20504;-68
2021/06/01 14:15:26;;;;;;;3.00;2.70;;;;;;;30.68;17.28;96479.28;5054163;28;20829;-67
2021/06/01 15:28:51;;;;;;;3.60;2.93;;;;;;;35.37;13.82;96423.38;4985613;28;20448;-70
2021/06/01 15:50:36;;;;;;;3.20;1.90;;;;;;;31.98;16.59;96415.78;5052052;28;20428;-70
2021/06/01 16:31:42;;;;;;;3.90;1.87;;;;;;;33.49;15.03;96387.91;5036290;28;20479;-72
2021/06/01 16:43:06;;;;;;;13.33;2.40;;;;;;;34.81;14.45;96390.97;5057600;28;20955;-71